sensor_id;sensor_type;location;lat;lon;timestamp;P1;durP1;ratioP1;P2;durP2;ratioP2
5117;SDS011;2578;51.622;7.046;2023-10-13T00:01:56;17.20;;;15.50;;
5117;SDS011;2578;51.622;7.046;2023-10-13T00:04:26;18.27;;;16.43;;
5117;SDS011;2578;51.622;7.046;2023-10-13T00:06:53;16.10;;;14.70;;
5117;SDS011;2578;51.622;7.046;2023-10-13T00:09:21;23.97;;;17.03;;
5117;SDS011;2578;51.622;7.046;2023-10-13T00:11:51;17.97;;;16.10;;
5117;SDS011;2578;51.622;7.046;2023-10-13T00:14:17;15.50;;;14.20;;
5117;SDS011;2578;51.622;7.046;2023-10-13T00:16:45;15.70;;;14.40;;
5117;SDS011;2578;51.622;7.046;2023-10-13T00:19:26;15.77;;;14.37;;
5117;SDS011;2578;51.622;7.046;2023-10-13T00:21:53;22.03;;;16.83;;
5117;SDS011;2578;51.622;7.046;2023-10-13T00:24:21;17.90;;;16.20;;
5117;SDS011;2578;51.622;7.046;2023-10-13T00:26:48;16.53;;;15.03;;
5117;SDS011;2578;51.622;7.046;2023-10-13T00:29:18;20.03;;;18.13;;
5117;SDS011;2578;51.622;7.046;2023-10-13T00:31:54;18.90;;;16.83;;
5117;SDS011;2578;51.622;7.046;2023-10-13T00:34:19;15.57;;;14.27;;
5117;SDS011;2578;51.622;7.046;2023-10-13T00:36:50;18.80;;;16.90;;
5117;SDS011;2578;51.622;7.046;2023-10-13T00:39:35;29.53;;;24.13;;
5117;SDS011;2578;51.622;7.046;2023-10-13T00:42:04;17.83;;;16.13;;
5117;SDS011;2578;51.622;7.046;2023-10-13T00:44:42;18.80;;;17.00;;
5117;SDS011;2578;51.622;7.046;2023-10-13T00:47:15;17.60;;;16.00;;
5117;SDS011;2578;51.622;7.046;2023-10-13T00:50:02;16.87;;;15.37;;
5117;SDS011;2578;51.622;7.046;2023-10-13T00:52:29;25.30;;;21.23;;
5117;SDS011;2578;51.622;7.046;2023-10-13T00:54:55;16.10;;;14.70;;
5117;SDS011;2578;51.622;7.046;2023-10-13T00:57:24;16.63;;;15.23;;
5117;SDS011;2578;51.622;7.046;2023-10-13T00:59:55;21.80;;;19.57;;
5117;SDS011;2578;51.622;7.046;2023-10-13T01:02:32;16.43;;;15.00;;
5117;SDS011;2578;51.622;7.046;2023-10-13T01:05:01;26.90;;;18.23;;
5117;SDS011;2578;51.622;7.046;2023-10-13T01:07:28;27.73;;;21.20;;
5117;SDS011;2578;51.622;7.046;2023-10-13T01:09:53;18.67;;;16.97;;
5117;SDS011;2578;51.622;7.046;2023-10-13T01:12:20;18.20;;;16.50;;
5117;SDS011;2578;51.622;7.046;2023-10-13T01:14:48;16.60;;;15.10;;
5117;SDS011;2578;51.622;7.046;2023-10-13T01:17:14;18.93;;;17.23;;
5117;SDS011;2578;51.622;7.046;2023-10-13T01:19:40;24.73;;;19.70;;
5117;SDS011;2578;51.622;7.046;2023-10-13T01:22:10;16.60;;;15.20;;
5117;SDS011;2578;51.622;7.046;2023-10-13T01:24:36;16.60;;;15.20;;
5117;SDS011;2578;51.622;7.046;2023-10-13T01:27:05;27.10;;;18.13;;
5117;SDS011;2578;51.622;7.046;2023-10-13T01:29:45;17.77;;;16.17;;
5117;SDS011;2578;51.622;7.046;2023-10-13T01:32:19;16.30;;;14.90;;
5117;SDS011;2578;51.622;7.046;2023-10-13T01:34:46;24.50;;;17.27;;
5117;SDS011;2578;51.622;7.046;2023-10-13T01:37:14;17.80;;;16.30;;
5117;SDS011;2578;51.622;7.046;2023-10-13T01:39:41;17.07;;;15.47;;
5117;SDS011;2578;51.622;7.046;2023-10-13T01:42:07;16.60;;;15.10;;
5117;SDS011;2578;51.622;7.046;2023-10-13T01:44:33;19.60;;;15.80;;
5117;SDS011;2578;51.622;7.046;2023-10-13T01:46:59;18.53;;;16.83;;
5117;SDS011;2578;51.622;7.046;2023-10-13T01:49:31;16.10;;;14.70;;
5117;SDS011;2578;51.622;7.046;2023-10-13T01:52:06;16.60;;;15.20;;
5117;SDS011;2578;51.622;7.046;2023-10-13T01:54:33;16.90;;;15.50;;
5117;SDS011;2578;51.622;7.046;2023-10-13T01:56:59;16.20;;;14.80;;
5117;SDS011;2578;51.622;7.046;2023-10-13T01:59:24;18.83;;;17.00;;
5117;SDS011;2578;51.622;7.046;2023-10-13T02:01:51;17.80;;;16.03;;
5117;SDS011;2578;51.622;7.046;2023-10-13T02:04:20;15.87;;;14.40;;
5117;SDS011;2578;51.622;7.046;2023-10-13T02:06:46;16.30;;;14.90;;
5117;SDS011;2578;51.622;7.046;2023-10-13T02:09:12;15.70;;;14.40;;
5117;SDS011;2578;51.622;7.046;2023-10-13T02:11:55;15.60;;;14.30;;
5117;SDS011;2578;51.622;7.046;2023-10-13T02:14:22;15.60;;;14.30;;
5117;SDS011;2578;51.622;7.046;2023-10-13T02:16:48;15.37;;;14.07;;
5117;SDS011;2578;51.622;7.046;2023-10-13T02:19:21;15.90;;;14.50;;
5117;SDS011;2578;51.622;7.046;2023-10-13T02:21:47;16.10;;;14.70;;
5117;SDS011;2578;51.622;7.046;2023-10-13T02:24:23;16.17;;;14.77;;
5117;SDS011;2578;51.622;7.046;2023-10-13T02:26:54;17.80;;;16.30;;
5117;SDS011;2578;51.622;7.046;2023-10-13T02:29:21;15.67;;;14.37;;
5117;SDS011;2578;51.622;7.046;2023-10-13T02:31:47;15.60;;;14.30;;
5117;SDS011;2578;51.622;7.046;2023-10-13T02:34:19;16.20;;;14.80;;
5117;SDS011;2578;51.622;7.046;2023-10-13T02:36:47;43.47;;;18.83;;
5117;SDS011;2578;51.622;7.046;2023-10-13T02:39:17;15.50;;;14.20;;
5117;SDS011;2578;51.622;7.046;2023-10-13T02:41:51;17.17;;;15.60;;
5117;SDS011;2578;51.622;7.046;2023-10-13T02:44:17;15.40;;;14.10;;
5117;SDS011;2578;51.622;7.046;2023-10-13T02:46:55;32.40;;;17.23;;
5117;SDS011;2578;51.622;7.046;2023-10-13T02:49:25;15.30;;;14.00;;
5117;SDS011;2578;51.622;7.046;2023-10-13T02:51:52;16.17;;;14.77;;
5117;SDS011;2578;51.622;7.046;2023-10-13T02:54:20;15.77;;;14.47;;
5117;SDS011;2578;51.622;7.046;2023-10-13T02:56:46;17.40;;;15.70;;
5117;SDS011;2578;51.622;7.046;2023-10-13T02:59:22;15.40;;;14.10;;
5117;SDS011;2578;51.622;7.046;2023-10-13T03:01:59;16.27;;;14.77;;
5117;SDS011;2578;51.622;7.046;2023-10-13T03:04:28;15.53;;;14.13;;
5117;SDS011;2578;51.622;7.046;2023-10-13T03:06:54;23.40;;;16.53;;
5117;SDS011;2578;51.622;7.046;2023-10-13T03:09:24;15.60;;;14.30;;
5117;SDS011;2578;51.622;7.046;2023-10-13T03:11:50;18.30;;;16.70;;
5117;SDS011;2578;51.622;7.046;2023-10-13T03:14:20;15.40;;;14.10;;
5117;SDS011;2578;51.622;7.046;2023-10-13T03:16:53;17.40;;;15.90;;
5117;SDS011;2578;51.622;7.046;2023-10-13T03:19:20;28.13;;;14.57;;
5117;SDS011;2578;51.622;7.046;2023-10-13T03:21:47;16.77;;;14.97;;
5117;SDS011;2578;51.622;7.046;2023-10-13T03:24:22;15.77;;;14.47;;
5117;SDS011;2578;51.622;7.046;2023-10-13T03:26:58;15.43;;;14.13;;
5117;SDS011;2578;51.622;7.046;2023-10-13T03:29:24;16.67;;;15.20;;
5117;SDS011;2578;51.622;7.046;2023-10-13T03:31:55;15.50;;;14.20;;
5117;SDS011;2578;51.622;7.046;2023-10-13T03:34:31;15.50;;;14.20;;
5117;SDS011;2578;51.622;7.046;2023-10-13T03:36:59;16.73;;;15.23;;
5117;SDS011;2578;51.622;7.046;2023-10-13T03:39:35;15.30;;;14.00;;
5117;SDS011;2578;51.622;7.046;2023-10-13T03:42:01;17.90;;;16.10;;
5117;SDS011;2578;51.622;7.046;2023-10-13T03:44:30;16.27;;;14.90;;
5117;SDS011;2578;51.622;7.046;2023-10-13T03:46:56;18.50;;;16.63;;
5117;SDS011;2578;51.622;7.046;2023-10-13T03:49:22;14.77;;;13.50;;
5117;SDS011;2578;51.622;7.046;2023-10-13T03:51:50;19.10;;;16.67;;
5117;SDS011;2578;51.622;7.046;2023-10-13T03:54:19;14.63;;;13.40;;
5117;SDS011;2578;51.622;7.046;2023-10-13T03:56:45;15.70;;;14.40;;
5117;SDS011;2578;51.622;7.046;2023-10-13T03:59:11;16.00;;;14.60;;
5117;SDS011;2578;51.622;7.046;2023-10-13T04:01:40;15.77;;;14.30;;
5117;SDS011;2578;51.622;7.046;2023-10-13T04:04:08;20.03;;;15.80;;
5117;SDS011;2578;51.622;7.046;2023-10-13T04:06:36;17.70;;;16.20;;
5117;SDS011;2578;51.622;7.046;2023-10-13T04:09:14;14.10;;;12.90;;
5117;SDS011;2578;51.622;7.046;2023-10-13T04:12:01;15.00;;;13.70;;
5117;SDS011;2578;51.622;7.046;2023-10-13T04:14:30;14.77;;;13.47;;
5117;SDS011;2578;51.622;7.046;2023-10-13T04:17:15;14.30;;;13.10;;
5117;SDS011;2578;51.622;7.046;2023-10-13T04:19:48;14.00;;;12.70;;
5117;SDS011;2578;51.622;7.046;2023-10-13T04:22:38;14.33;;;12.83;;
5117;SDS011;2578;51.622;7.046;2023-10-13T04:28:02;13.50;;;12.30;;
5117;SDS011;2578;51.622;7.046;2023-10-13T04:30:59;14.57;;;13.37;;
5117;SDS011;2578;51.622;7.046;2023-10-13T04:33:32;14.57;;;13.13;;
5117;SDS011;2578;51.622;7.046;2023-10-13T04:38:43;14.30;;;13.03;;
5117;SDS011;2578;51.622;7.046;2023-10-13T04:41:20;13.30;;;12.10;;
5117;SDS011;2578;51.622;7.046;2023-10-13T04:43:50;13.37;;;12.20;;
5117;SDS011;2578;51.622;7.046;2023-10-13T04:46:22;13.50;;;12.33;;
5117;SDS011;2578;51.622;7.046;2023-10-13T04:49:04;14.20;;;12.80;;
5117;SDS011;2578;51.622;7.046;2023-10-13T04:51:36;13.37;;;12.07;;
5117;SDS011;2578;51.622;7.046;2023-10-13T04:54:21;13.53;;;12.20;;
5117;SDS011;2578;51.622;7.046;2023-10-13T04:57:00;12.40;;;11.30;;
5117;SDS011;2578;51.622;7.046;2023-10-13T04:59:55;13.73;;;12.53;;
5117;SDS011;2578;51.622;7.046;2023-10-13T05:02:36;12.77;;;11.67;;
5117;SDS011;2578;51.622;7.046;2023-10-13T05:05:15;13.43;;;12.13;;
5117;SDS011;2578;51.622;7.046;2023-10-13T05:07:46;17.13;;;13.97;;
5117;SDS011;2578;51.622;7.046;2023-10-13T05:10:31;14.07;;;12.70;;
5117;SDS011;2578;51.622;7.046;2023-10-13T05:13:17;14.43;;;13.23;;
5117;SDS011;2578;51.622;7.046;2023-10-13T05:16:01;13.87;;;12.57;;
5117;SDS011;2578;51.622;7.046;2023-10-13T05:18:45;13.47;;;12.27;;
5117;SDS011;2578;51.622;7.046;2023-10-13T05:21:29;23.03;;;15.10;;
5117;SDS011;2578;51.622;7.046;2023-10-13T05:24:13;13.00;;;11.70;;
5117;SDS011;2578;51.622;7.046;2023-10-13T05:27:05;13.80;;;12.40;;
5117;SDS011;2578;51.622;7.046;2023-10-13T05:29:49;13.87;;;12.67;;
5117;SDS011;2578;51.622;7.046;2023-10-13T05:32:33;12.83;;;11.73;;
5117;SDS011;2578;51.622;7.046;2023-10-13T05:35:19;15.53;;;14.13;;
5117;SDS011;2578;51.622;7.046;2023-10-13T05:38:04;17.57;;;16.00;;
5117;SDS011;2578;51.622;7.046;2023-10-13T05:40:52;17.37;;;15.67;;
5117;SDS011;2578;51.622;7.046;2023-10-13T05:43:40;16.80;;;15.40;;
5117;SDS011;2578;51.622;7.046;2023-10-13T05:46:24;16.50;;;15.20;;
5117;SDS011;2578;51.622;7.046;2023-10-13T05:48:50;19.17;;;17.60;;
5117;SDS011;2578;51.622;7.046;2023-10-13T05:51:22;22.83;;;20.53;;
5117;SDS011;2578;51.622;7.046;2023-10-13T05:54:04;20.13;;;18.53;;
5117;SDS011;2578;51.622;7.046;2023-10-13T05:59:27;21.50;;;19.90;;
5117;SDS011;2578;51.622;7.046;2023-10-13T06:02:12;20.80;;;19.20;;
5117;SDS011;2578;51.622;7.046;2023-10-13T06:05:12;23.13;;;21.03;;
5117;SDS011;2578;51.622;7.046;2023-10-13T06:07:57;19.60;;;18.10;;
5117;SDS011;2578;51.622;7.046;2023-10-13T06:10:41;22.60;;;20.70;;
5117;SDS011;2578;51.622;7.046;2023-10-13T06:13:26;19.77;;;18.17;;
5117;SDS011;2578;51.622;7.046;2023-10-13T06:16:11;20.80;;;19.10;;
5117;SDS011;2578;51.622;7.046;2023-10-13T06:18:57;18.20;;;16.80;;
5117;SDS011;2578;51.622;7.046;2023-10-13T06:21:42;19.17;;;17.60;;
5117;SDS011;2578;51.622;7.046;2023-10-13T06:24:26;18.67;;;17.17;;
5117;SDS011;2578;51.622;7.046;2023-10-13T06:27:11;18.60;;;17.00;;
5117;SDS011;2578;51.622;7.046;2023-10-13T06:29:56;18.23;;;16.83;;
5117;SDS011;2578;51.622;7.046;2023-10-13T06:32:21;21.10;;;18.10;;
5117;SDS011;2578;51.622;7.046;2023-10-13T06:34:54;26.60;;;17.70;;
5117;SDS011;2578;51.622;7.046;2023-10-13T06:37:23;18.43;;;16.93;;
5117;SDS011;2578;51.622;7.046;2023-10-13T06:39:58;17.33;;;15.93;;
5117;SDS011;2578;51.622;7.046;2023-10-13T06:42:31;18.30;;;16.60;;
5117;SDS011;2578;51.622;7.046;2023-10-13T06:44:59;16.40;;;14.93;;
5117;SDS011;2578;51.622;7.046;2023-10-13T06:47:33;16.83;;;15.33;;
5117;SDS011;2578;51.622;7.046;2023-10-13T06:50:08;15.90;;;14.60;;
5117;SDS011;2578;51.622;7.046;2023-10-13T06:52:42;19.63;;;17.83;;
5117;SDS011;2578;51.622;7.046;2023-10-13T06:55:08;15.10;;;13.90;;
5117;SDS011;2578;51.622;7.046;2023-10-13T06:57:51;16.27;;;14.97;;
5117;SDS011;2578;51.622;7.046;2023-10-13T07:00:17;18.63;;;16.30;;
5117;SDS011;2578;51.622;7.046;2023-10-13T07:02:54;15.40;;;14.10;;
5117;SDS011;2578;51.622;7.046;2023-10-13T07:05:30;16.73;;;15.43;;
5117;SDS011;2578;51.622;7.046;2023-10-13T07:08:09;15.40;;;14.10;;
5117;SDS011;2578;51.622;7.046;2023-10-13T07:10:46;14.77;;;13.57;;
5117;SDS011;2578;51.622;7.046;2023-10-13T07:13:28;15.70;;;14.40;;
5117;SDS011;2578;51.622;7.046;2023-10-13T07:15:54;14.70;;;13.50;;
5117;SDS011;2578;51.622;7.046;2023-10-13T07:18:25;15.80;;;14.50;;
5117;SDS011;2578;51.622;7.046;2023-10-13T07:20:51;15.50;;;14.20;;
5117;SDS011;2578;51.622;7.046;2023-10-13T07:23:22;17.23;;;15.43;;
5117;SDS011;2578;51.622;7.046;2023-10-13T07:25:52;16.13;;;14.73;;
5117;SDS011;2578;51.622;7.046;2023-10-13T07:28:20;15.90;;;14.60;;
5117;SDS011;2578;51.622;7.046;2023-10-13T07:30:46;15.50;;;14.20;;
5117;SDS011;2578;51.622;7.046;2023-10-13T07:33:34;15.00;;;13.70;;
5117;SDS011;2578;51.622;7.046;2023-10-13T07:38:53;15.30;;;14.00;;
5117;SDS011;2578;51.622;7.046;2023-10-13T07:42:05;16.07;;;14.70;;
5117;SDS011;2578;51.622;7.046;2023-10-13T07:44:32;29.77;;;27.30;;
5117;SDS011;2578;51.622;7.046;2023-10-13T07:46:59;16.63;;;15.23;;
5117;SDS011;2578;51.622;7.046;2023-10-13T07:49:32;17.07;;;15.57;;
5117;SDS011;2578;51.622;7.046;2023-10-13T07:52:01;15.73;;;14.40;;
5117;SDS011;2578;51.622;7.046;2023-10-13T07:54:47;15.20;;;13.83;;
5117;SDS011;2578;51.622;7.046;2023-10-13T07:57:15;14.80;;;13.50;;
5117;SDS011;2578;51.622;7.046;2023-10-13T07:59:42;24.60;;;20.17;;
5117;SDS011;2578;51.622;7.046;2023-10-13T08:02:17;16.17;;;14.77;;
5117;SDS011;2578;51.622;7.046;2023-10-13T08:05:02;15.40;;;14.10;;
5117;SDS011;2578;51.622;7.046;2023-10-13T08:07:33;16.00;;;14.50;;
5117;SDS011;2578;51.622;7.046;2023-10-13T08:10:04;17.43;;;15.77;;
5117;SDS011;2578;51.622;7.046;2023-10-13T08:12:35;18.07;;;16.20;;
5117;SDS011;2578;51.622;7.046;2023-10-13T08:15:02;18.07;;;16.27;;
5117;SDS011;2578;51.622;7.046;2023-10-13T08:17:37;18.40;;;16.60;;
5117;SDS011;2578;51.622;7.046;2023-10-13T08:20:02;17.83;;;16.33;;
5117;SDS011;2578;51.622;7.046;2023-10-13T08:22:37;17.53;;;15.93;;
5117;SDS011;2578;51.622;7.046;2023-10-13T08:25:03;16.93;;;15.50;;
5117;SDS011;2578;51.622;7.046;2023-10-13T08:27:48;16.00;;;14.63;;
5117;SDS011;2578;51.622;7.046;2023-10-13T08:30:15;15.97;;;14.57;;
5117;SDS011;2578;51.622;7.046;2023-10-13T08:33:07;17.33;;;15.73;;
5117;SDS011;2578;51.622;7.046;2023-10-13T08:35:42;33.83;;;18.43;;
5117;SDS011;2578;51.622;7.046;2023-10-13T08:38:40;17.53;;;16.03;;
5117;SDS011;2578;51.622;7.046;2023-10-13T08:41:15;19.13;;;17.43;;
5117;SDS011;2578;51.622;7.046;2023-10-13T08:43:44;18.60;;;17.00;;
5117;SDS011;2578;51.622;7.046;2023-10-13T08:46:16;19.50;;;17.87;;
5117;SDS011;2578;51.622;7.046;2023-10-13T08:48:58;20.73;;;18.93;;
5117;SDS011;2578;51.622;7.046;2023-10-13T08:51:51;20.90;;;19.10;;
5117;SDS011;2578;51.622;7.046;2023-10-13T08:54:32;27.53;;;20.40;;
5117;SDS011;2578;51.622;7.046;2023-10-13T08:57:03;24.43;;;19.00;;
5117;SDS011;2578;51.622;7.046;2023-10-13T08:59:52;20.67;;;18.77;;
5117;SDS011;2578;51.622;7.046;2023-10-13T09:02:21;20.70;;;18.80;;
5117;SDS011;2578;51.622;7.046;2023-10-13T09:05:07;19.70;;;18.00;;
5117;SDS011;2578;51.622;7.046;2023-10-13T09:07:54;20.23;;;18.23;;
5117;SDS011;2578;51.622;7.046;2023-10-13T09:10:24;19.17;;;17.37;;
5117;SDS011;2578;51.622;7.046;2023-10-13T09:12:58;20.30;;;18.50;;
5117;SDS011;2578;51.622;7.046;2023-10-13T09:15:28;20.47;;;18.47;;
5117;SDS011;2578;51.622;7.046;2023-10-13T09:18:22;21.93;;;19.20;;
5117;SDS011;2578;51.622;7.046;2023-10-13T09:21:07;21.30;;;19.20;;
5117;SDS011;2578;51.622;7.046;2023-10-13T09:23:51;20.40;;;18.40;;
5117;SDS011;2578;51.622;7.046;2023-10-13T09:26:35;23.77;;;21.40;;
5117;SDS011;2578;51.622;7.046;2023-10-13T09:29:01;22.03;;;19.73;;
5117;SDS011;2578;51.622;7.046;2023-10-13T09:31:29;20.90;;;18.90;;
5117;SDS011;2578;51.622;7.046;2023-10-13T09:33:57;23.37;;;20.83;;
5117;SDS011;2578;51.622;7.046;2023-10-13T09:36:23;21.40;;;19.30;;
5117;SDS011;2578;51.622;7.046;2023-10-13T09:38:50;22.80;;;20.40;;
5117;SDS011;2578;51.622;7.046;2023-10-13T09:41:38;23.70;;;21.20;;
5117;SDS011;2578;51.622;7.046;2023-10-13T09:44:05;22.93;;;20.60;;
5117;SDS011;2578;51.622;7.046;2023-10-13T09:46:33;21.80;;;19.70;;
5117;SDS011;2578;51.622;7.046;2023-10-13T09:49:11;23.00;;;20.80;;
5117;SDS011;2578;51.622;7.046;2023-10-13T09:51:47;23.43;;;21.13;;
5117;SDS011;2578;51.622;7.046;2023-10-13T09:54:18;25.20;;;22.60;;
5117;SDS011;2578;51.622;7.046;2023-10-13T09:56:52;23.87;;;21.57;;
5117;SDS011;2578;51.622;7.046;2023-10-13T09:59:22;23.50;;;21.20;;
5117;SDS011;2578;51.622;7.046;2023-10-13T10:01:59;25.70;;;23.20;;
5117;SDS011;2578;51.622;7.046;2023-10-13T10:04:33;27.10;;;24.40;;
5117;SDS011;2578;51.622;7.046;2023-10-13T10:07:09;23.93;;;21.73;;
5117;SDS011;2578;51.622;7.046;2023-10-13T10:09:35;24.73;;;22.33;;
5117;SDS011;2578;51.622;7.046;2023-10-13T10:15:06;27.33;;;24.47;;
5117;SDS011;2578;51.622;7.046;2023-10-13T10:17:45;25.80;;;23.30;;
5117;SDS011;2578;51.622;7.046;2023-10-13T10:20:11;24.53;;;22.13;;
5117;SDS011;2578;51.622;7.046;2023-10-13T10:22:54;26.30;;;23.80;;
5117;SDS011;2578;51.622;7.046;2023-10-13T10:25:28;25.07;;;22.57;;
5117;SDS011;2578;51.622;7.046;2023-10-13T10:28:00;26.20;;;23.50;;
5117;SDS011;2578;51.622;7.046;2023-10-13T10:30:30;25.13;;;22.67;;
5117;SDS011;2578;51.622;7.046;2023-10-13T10:32:59;25.70;;;23.20;;
5117;SDS011;2578;51.622;7.046;2023-10-13T10:35:26;26.93;;;24.03;;
5117;SDS011;2578;51.622;7.046;2023-10-13T10:37:57;25.10;;;22.70;;
5117;SDS011;2578;51.622;7.046;2023-10-13T10:40:52;24.50;;;22.20;;
5117;SDS011;2578;51.622;7.046;2023-10-13T10:45:51;24.40;;;22.10;;
5117;SDS011;2578;51.622;7.046;2023-10-13T10:48:24;24.67;;;22.40;;
5117;SDS011;2578;51.622;7.046;2023-10-13T10:50:56;24.17;;;21.97;;
5117;SDS011;2578;51.622;7.046;2023-10-13T10:53:24;24.27;;;21.97;;
5117;SDS011;2578;51.622;7.046;2023-10-13T10:56:08;23.10;;;21.00;;
5117;SDS011;2578;51.622;7.046;2023-10-13T10:58:57;26.23;;;23.63;;
5117;SDS011;2578;51.622;7.046;2023-10-13T11:01:25;23.67;;;21.50;;
5117;SDS011;2578;51.622;7.046;2023-10-13T11:04:02;25.00;;;22.40;;
5117;SDS011;2578;51.622;7.046;2023-10-13T11:06:58;26.05;;;23.25;;
5117;SDS011;2578;51.622;7.046;2023-10-13T11:09:24;24.20;;;21.90;;
5117;SDS011;2578;51.622;7.046;2023-10-13T11:11:50;24.53;;;22.33;;
5117;SDS011;2578;51.622;7.046;2023-10-13T11:14:28;23.67;;;21.57;;
5117;SDS011;2578;51.622;7.046;2023-10-13T11:16:55;24.77;;;22.57;;
5117;SDS011;2578;51.622;7.046;2023-10-13T11:19:38;27.53;;;25.13;;
5117;SDS011;2578;51.622;7.046;2023-10-13T11:22:12;25.07;;;22.87;;
5117;SDS011;2578;51.622;7.046;2023-10-13T11:24:57;24.20;;;22.10;;
5117;SDS011;2578;51.622;7.046;2023-10-13T11:27:34;24.20;;;22.03;;
5117;SDS011;2578;51.622;7.046;2023-10-13T11:30:15;25.53;;;23.27;;
5117;SDS011;2578;51.622;7.046;2023-10-13T11:35:33;25.87;;;23.57;;
5117;SDS011;2578;51.622;7.046;2023-10-13T11:41:03;27.80;;;25.23;;
5117;SDS011;2578;51.622;7.046;2023-10-13T11:43:29;28.60;;;25.73;;
5117;SDS011;2578;51.622;7.046;2023-10-13T11:46:08;29.13;;;26.53;;
5117;SDS011;2578;51.622;7.046;2023-10-13T11:48:42;31.03;;;28.03;;
5117;SDS011;2578;51.622;7.046;2023-10-13T11:51:11;31.67;;;28.80;;
5117;SDS011;2578;51.622;7.046;2023-10-13T11:53:44;34.03;;;30.70;;
5117;SDS011;2578;51.622;7.046;2023-10-13T11:56:10;30.90;;;28.20;;
5117;SDS011;2578;51.622;7.046;2023-10-13T11:58:36;30.70;;;27.97;;
5117;SDS011;2578;51.622;7.046;2023-10-13T12:01:03;29.53;;;26.93;;
5117;SDS011;2578;51.622;7.046;2023-10-13T12:03:40;28.60;;;26.10;;
5117;SDS011;2578;51.622;7.046;2023-10-13T12:06:26;29.60;;;26.90;;
5117;SDS011;2578;51.622;7.046;2023-10-13T12:09:03;29.93;;;27.10;;
5117;SDS011;2578;51.622;7.046;2023-10-13T12:11:59;30.80;;;27.70;;
5117;SDS011;2578;51.622;7.046;2023-10-13T12:14:26;30.23;;;27.53;;
5117;SDS011;2578;51.622;7.046;2023-10-13T12:16:57;30.33;;;27.63;;
5117;SDS011;2578;51.622;7.046;2023-10-13T12:19:28;30.20;;;27.50;;
5117;SDS011;2578;51.622;7.046;2023-10-13T12:21:55;31.73;;;28.40;;
5117;SDS011;2578;51.622;7.046;2023-10-13T12:24:21;32.87;;;29.43;;
5117;SDS011;2578;51.622;7.046;2023-10-13T12:27:15;31.40;;;28.40;;
5117;SDS011;2578;51.622;7.046;2023-10-13T12:29:50;35.00;;;31.57;;
5117;SDS011;2578;51.622;7.046;2023-10-13T12:32:17;30.83;;;28.23;;
5117;SDS011;2578;51.622;7.046;2023-10-13T12:34:55;31.33;;;28.70;;
5117;SDS011;2578;51.622;7.046;2023-10-13T12:37:24;29.20;;;26.70;;
5117;SDS011;2578;51.622;7.046;2023-10-13T12:40:06;29.57;;;27.07;;
5117;SDS011;2578;51.622;7.046;2023-10-13T12:42:52;28.60;;;26.10;;
5117;SDS011;2578;51.622;7.046;2023-10-13T12:45:43;27.83;;;25.43;;
5117;SDS011;2578;51.622;7.046;2023-10-13T12:48:29;26.90;;;24.70;;
5117;SDS011;2578;51.622;7.046;2023-10-13T12:51:14;27.60;;;25.20;;
5117;SDS011;2578;51.622;7.046;2023-10-13T12:54:00;28.83;;;25.70;;
5117;SDS011;2578;51.622;7.046;2023-10-13T12:56:48;27.50;;;25.30;;
5117;SDS011;2578;51.622;7.046;2023-10-13T12:59:13;62.27;;;26.93;;
5117;SDS011;2578;51.622;7.046;2023-10-13T13:01:40;27.53;;;25.07;;
5117;SDS011;2578;51.622;7.046;2023-10-13T13:04:09;28.57;;;25.83;;
5117;SDS011;2578;51.622;7.046;2023-10-13T13:06:45;26.90;;;24.60;;
5117;SDS011;2578;51.622;7.046;2023-10-13T13:09:13;27.80;;;25.13;;
5117;SDS011;2578;51.622;7.046;2023-10-13T13:11:39;26.93;;;24.73;;
5117;SDS011;2578;51.622;7.046;2023-10-13T13:14:07;28.33;;;25.90;;
5117;SDS011;2578;51.622;7.046;2023-10-13T13:16:33;29.60;;;27.00;;
5117;SDS011;2578;51.622;7.046;2023-10-13T13:19:00;27.40;;;25.10;;
5117;SDS011;2578;51.622;7.046;2023-10-13T13:21:35;27.97;;;25.60;;
5117;SDS011;2578;51.622;7.046;2023-10-13T13:24:01;27.03;;;24.83;;
5117;SDS011;2578;51.622;7.046;2023-10-13T13:26:29;28.97;;;26.33;;
5117;SDS011;2578;51.622;7.046;2023-10-13T13:28:56;27.23;;;24.37;;
5117;SDS011;2578;51.622;7.046;2023-10-13T13:31:22;26.13;;;23.93;;
5117;SDS011;2578;51.622;7.046;2023-10-13T13:33:54;26.03;;;23.87;;
5117;SDS011;2578;51.622;7.046;2023-10-13T13:36:20;25.30;;;23.10;;
5117;SDS011;2578;51.622;7.046;2023-10-13T13:38:47;27.57;;;25.27;;
5117;SDS011;2578;51.622;7.046;2023-10-13T13:41:19;30.67;;;27.40;;
5117;SDS011;2578;51.622;7.046;2023-10-13T13:43:47;26.83;;;24.43;;
5117;SDS011;2578;51.622;7.046;2023-10-13T13:46:16;26.10;;;23.67;;
5117;SDS011;2578;51.622;7.046;2023-10-13T13:48:43;26.40;;;24.20;;
5117;SDS011;2578;51.622;7.046;2023-10-13T13:51:12;27.00;;;24.30;;
5117;SDS011;2578;51.622;7.046;2023-10-13T13:53:44;33.53;;;26.57;;
5117;SDS011;2578;51.622;7.046;2023-10-13T13:56:11;28.07;;;23.40;;
5117;SDS011;2578;51.622;7.046;2023-10-13T13:58:41;28.10;;;25.60;;
5117;SDS011;2578;51.622;7.046;2023-10-13T14:01:07;25.10;;;23.00;;
5117;SDS011;2578;51.622;7.046;2023-10-13T14:03:51;24.43;;;22.23;;
5117;SDS011;2578;51.622;7.046;2023-10-13T14:06:22;25.63;;;23.20;;
5117;SDS011;2578;51.622;7.046;2023-10-13T14:08:50;28.83;;;22.80;;
5117;SDS011;2578;51.622;7.046;2023-10-13T14:11:20;25.50;;;23.13;;
5117;SDS011;2578;51.622;7.046;2023-10-13T14:14:05;24.60;;;22.30;;
5117;SDS011;2578;51.622;7.046;2023-10-13T14:16:37;31.33;;;26.17;;
5117;SDS011;2578;51.622;7.046;2023-10-13T14:19:09;25.50;;;23.10;;
5117;SDS011;2578;51.622;7.046;2023-10-13T14:21:35;26.93;;;24.20;;
5117;SDS011;2578;51.622;7.046;2023-10-13T14:24:01;25.33;;;22.80;;
5117;SDS011;2578;51.622;7.046;2023-10-13T14:26:28;84.40;;;35.30;;
5117;SDS011;2578;51.622;7.046;2023-10-13T14:28:54;25.80;;;23.30;;
5117;SDS011;2578;51.622;7.046;2023-10-13T14:31:39;24.90;;;22.63;;
5117;SDS011;2578;51.622;7.046;2023-10-13T14:34:05;24.08;;;21.90;;
5117;SDS011;2578;51.622;7.046;2023-10-13T14:36:33;27.53;;;23.20;;
5117;SDS011;2578;51.622;7.046;2023-10-13T14:39:02;22.73;;;20.83;;
5117;SDS011;2578;51.622;7.046;2023-10-13T14:41:37;23.20;;;21.30;;
5117;SDS011;2578;51.622;7.046;2023-10-13T14:44:03;28.27;;;22.93;;
5117;SDS011;2578;51.622;7.046;2023-10-13T14:46:31;24.67;;;22.43;;
5117;SDS011;2578;51.622;7.046;2023-10-13T14:49:04;24.20;;;22.20;;
5117;SDS011;2578;51.622;7.046;2023-10-13T14:51:30;24.73;;;22.60;;
5117;SDS011;2578;51.622;7.046;2023-10-13T14:53:56;24.70;;;22.60;;
5117;SDS011;2578;51.622;7.046;2023-10-13T14:56:24;23.83;;;21.37;;
5117;SDS011;2578;51.622;7.046;2023-10-13T14:58:51;22.50;;;20.60;;
5117;SDS011;2578;51.622;7.046;2023-10-13T15:01:19;24.10;;;21.97;;
5117;SDS011;2578;51.622;7.046;2023-10-13T15:08:55;22.67;;;20.67;;
5117;SDS011;2578;51.622;7.046;2023-10-13T15:11:21;25.13;;;23.03;;
5117;SDS011;2578;51.622;7.046;2023-10-13T15:13:55;24.00;;;21.47;;
5117;SDS011;2578;51.622;7.046;2023-10-13T15:16:24;23.33;;;21.50;;
5117;SDS011;2578;51.622;7.046;2023-10-13T15:18:51;24.07;;;22.17;;
5117;SDS011;2578;51.622;7.046;2023-10-13T15:21:24;21.90;;;20.10;;
5117;SDS011;2578;51.622;7.046;2023-10-13T15:23:55;24.63;;;22.20;;
5117;SDS011;2578;51.622;7.046;2023-10-13T15:26:41;22.20;;;20.50;;
5117;SDS011;2578;51.622;7.046;2023-10-13T15:29:17;22.70;;;20.70;;
5117;SDS011;2578;51.622;7.046;2023-10-13T15:31:46;23.17;;;20.97;;
5117;SDS011;2578;51.622;7.046;2023-10-13T15:34:24;22.67;;;20.50;;
5117;SDS011;2578;51.622;7.046;2023-10-13T15:36:51;25.70;;;21.60;;
5117;SDS011;2578;51.622;7.046;2023-10-13T15:39:19;21.40;;;19.50;;
5117;SDS011;2578;51.622;7.046;2023-10-13T15:41:48;20.57;;;18.77;;
5117;SDS011;2578;51.622;7.046;2023-10-13T15:44:19;21.80;;;19.70;;
5117;SDS011;2578;51.622;7.046;2023-10-13T15:46:49;21.67;;;19.77;;
5117;SDS011;2578;51.622;7.046;2023-10-13T15:49:18;22.37;;;20.20;;
5117;SDS011;2578;51.622;7.046;2023-10-13T15:51:44;21.97;;;19.93;;
5117;SDS011;2578;51.622;7.046;2023-10-13T15:54:10;22.83;;;20.33;;